Time;durP1;ratioP1;P1;durP2;ratioP2;P2;SDS_P1;SDS_P2;PMS_P1;PMS_P2;Temp;Humidity;BMP_temperature;BMP_pressure;BME280_temperature;BME280_humidity;BME280_pressure;Samples;Min_cycle;Max_cycle;Signal;HPM_P1;HPM_P2
2022/02/25 00:02:06;;;;;;;3.55;1.50;;;;;;;;;;4960383;28;20496;-81
2022/02/25 00:04:31;;;;;;;3.97;1.48;;;;;;;;;;4944300;28;20041;-81
2022/02/25 00:06:56;;;;;;;3.30;1.40;;;;;;;;;;4943925;28;20481;-81
2022/02/25 00:09:22;;;;;;;4.43;1.75;;;;;;;;;;4960863;28;20034;-81
2022/02/25 00:11:47;;;;;;;2.88;1.73;;;;;;;;;;4976002;28;20088;-81
2022/02/25 00:14:13;;;;;;;3.33;1.30;;;;;;;;;;4956310;28;20027;-81
2022/02/25 00:16:39;;;;;;;4.50;1.67;;;;;;;;;;4989177;28;20394;-81
2022/02/25 00:19:04;;;;;;;3.65;1.38;;;;;;;;;;4972811;28;20043;-81
2022/02/25 00:21:30;;;;;;;4.75;2.03;;;;;;;;;;4990229;28;20053;-84
2022/02/25 00:23:55;;;;;;;3.80;1.35;;;;;;;;;;4956673;28;20043;-81
2022/02/25 00:26:21;;;;;;;3.92;1.48;;;;;;;;;;4956543;28;20043;-81
2022/02/25 00:28:47;;;;;;;4.90;1.70;;;;;;;;;;4973142;28;20065;-81
2022/02/25 00:31:13;;;;;;;3.70;1.65;;;;;;;;;;4956932;28;20034;-81
2022/02/25 00:33:38;;;;;;;4.40;1.67;;;;;;;;;;4972666;28;20106;-81
2022/02/25 00:36:04;;;;;;;3.50;1.33;;;;;;;;;;4956721;28;20039;-81
2022/02/25 00:38:29;;;;;;;2.20;1.38;;;;;;;;;;4988300;28;20101;-81
2022/02/25 00:40:55;;;;;;;3.58;1.40;;;;;;;;;;4972575;28;20043;-81
2022/02/25 00:43:20;;;;;;;4.32;2.28;;;;;;;;;;4990144;28;20499;-82
2022/02/25 00:45:46;;;;;;;4.03;1.35;;;;;;;;;;4959632;28;20441;-81
2022/02/25 00:48:11;;;;;;;3.65;1.20;;;;;;;;;;4956597;28;20034;-82
2022/02/25 00:50:37;;;;;;;3.28;1.35;;;;;;;;;;4955535;28;20084;-81
2022/02/25 00:53:02;;;;;;;3.92;1.50;;;;;;;;;;4988782;28;20169;-81
2022/02/25 00:55:28;;;;;;;4.18;1.42;;;;;;;;;;4976298;28;20080;-82
2022/02/25 00:57:53;;;;;;;2.78;1.17;;;;;;;;;;4991844;28;20058;-81
2022/02/25 01:00:19;;;;;;;2.92;1.45;;;;;;;;;;4956326;28;20039;-81
2022/02/25 01:02:45;;;;;;;5.90;2.22;;;;;;;;;;4940105;28;20137;-81
2022/02/25 01:05:11;;;;;;;3.13;1.30;;;;;;;;;;4939911;28;20126;-81
2022/02/25 01:07:39;;;;;;;2.65;0.95;;;;;;;;;;4940618;28;20402;-82
2022/02/25 01:10:05;;;;;;;2.70;1.17;;;;;;;;;;4940070;28;20501;-81
2022/02/25 01:12:31;;;;;;;4.35;1.67;;;;;;;;;;4956825;28;20129;-82
2022/02/25 01:14:57;;;;;;;2.95;1.10;;;;;;;;;;4991331;28;20053;-81
2022/02/25 01:17:23;;;;;;;3.10;1.10;;;;;;;;;;4991518;28;20042;-81
2022/02/25 01:19:49;;;;;;;2.40;1.00;;;;;;;;;;4958612;28;20050;-81
2022/02/25 01:22:15;;;;;;;3.42;1.27;;;;;;;;;;4975131;28;20411;-81
2022/02/25 01:24:41;;;;;;;3.85;1.30;;;;;;;;;;4975093;28;20050;-81
2022/02/25 01:27:07;;;;;;;2.92;1.30;;;;;;;;;;4959383;28;20042;-82
2022/02/25 01:29:33;;;;;;;4.22;1.50;;;;;;;;;;4973723;28;20520;-81
2022/02/25 01:31:58;;;;;;;3.25;1.17;;;;;;;;;;4975329;28;20109;-81
2022/02/25 01:34:24;;;;;;;4.32;2.13;;;;;;;;;;5000966;28;20429;-81
2022/02/25 01:36:49;;;;;;;3.50;1.35;;;;;;;;;;4971859;28;20034;-81
2022/02/25 01:39:16;;;;;;;3.20;1.02;;;;;;;;;;4971720;28;20405;-81
2022/02/25 01:41:41;;;;;;;3.70;1.30;;;;;;;;;;4987779;28;20050;-81
2022/02/25 01:44:13;;;;;;;3.20;1.25;;;;;;;;;;4969979;28;20046;-81
2022/02/25 01:46:39;;;;;;;5.15;1.60;;;;;;;;;;4974533;28;20516;-81
2022/02/25 01:49:04;;;;;;;4.05;1.20;;;;;;;;;;4955337;28;20190;-81
2022/02/25 01:51:30;;;;;;;3.83;1.17;;;;;;;;;;4967823;28;20617;-81
2022/02/25 01:53:55;;;;;;;3.25;1.27;;;;;;;;;;4977086;28;20113;-82
2022/02/25 01:56:21;;;;;;;3.38;1.40;;;;;;;;;;4950106;28;20035;-82
2022/02/25 01:58:46;;;;;;;4.82;1.23;;;;;;;;;;4959190;28;20039;-81
2022/02/25 02:01:12;;;;;;;2.58;1.10;;;;;;;;;;4971618;28;20050;-81
2022/02/25 02:03:38;;;;;;;3.08;1.40;;;;;;;;;;4982047;28;20513;-81
2022/02/25 02:06:07;;;;;;;3.33;1.42;;;;;;;;;;4988972;28;20034;-81
2022/02/25 02:08:32;;;;;;;4.90;1.50;;;;;;;;;;4988931;28;20520;-81
2022/02/25 02:10:58;;;;;;;6.13;1.75;;;;;;;;;;4974779;28;20073;-81
2022/02/25 02:13:23;;;;;;;4.38;1.48;;;;;;;;;;4974818;28;20066;-81
2022/02/25 02:15:49;;;;;;;5.63;1.55;;;;;;;;;;4978257;28;20109;-82
2022/02/25 02:18:14;;;;;;;2.70;1.20;;;;;;;;;;4978727;28;20428;-81
2022/02/25 02:20:40;;;;;;;5.50;1.20;;;;;;;;;;4960698;28;20118;-82
2022/02/25 02:23:05;;;;;;;3.20;1.17;;;;;;;;;;4960313;28;20047;-81
2022/02/25 02:25:31;;;;;;;4.20;1.20;;;;;;;;;;4958952;28;20085;-82
2022/02/25 02:30:40;;;;;;;5.00;1.83;;;;;;;;;;4975274;28;20034;-81
2022/02/25 02:33:06;;;;;;;4.32;1.60;;;;;;;;;;4950425;28;20425;-82
2022/02/25 02:35:31;;;;;;;3.55;1.58;;;;;;;;;;4960427;28;20062;-81
2022/02/25 02:37:57;;;;;;;3.72;1.20;;;;;;;;;;4982666;28;20398;-82
2022/02/25 02:40:22;;;;;;;2.95;1.00;;;;;;;;;;4974766;28;20073;-82
2022/02/25 02:42:48;;;;;;;3.67;1.60;;;;;;;;;;4990958;28;20405;-81
2022/02/25 02:45:15;;;;;;;2.92;1.05;;;;;;;;;;4982443;28;20031;-82
2022/02/25 02:47:41;;;;;;;3.25;1.10;;;;;;;;;;4978238;28;20489;-82
2022/02/25 02:50:07;;;;;;;3.08;1.20;;;;;;;;;;4978041;28;20038;-81
2022/02/25 02:52:32;;;;;;;3.03;0.93;;;;;;;;;;4993959;28;20507;-82
2022/02/25 02:54:59;;;;;;;3.90;1.35;;;;;;;;;;4961844;28;20037;-81
2022/02/25 02:57:25;;;;;;;4.32;1.25;;;;;;;;;;4945723;28;20455;-82
2022/02/25 02:59:50;;;;;;;3.80;1.50;;;;;;;;;;4955986;28;20042;-82
2022/02/25 03:02:16;;;;;;;6.05;1.25;;;;;;;;;;4970061;28;20042;-82
2022/02/25 03:04:42;;;;;;;3.75;1.25;;;;;;;;;;4942521;28;20042;-82
2022/02/25 03:07:07;;;;;;;3.67;1.20;;;;;;;;;;4941909;28;20034;-82
2022/02/25 03:09:33;;;;;;;3.28;1.33;;;;;;;;;;4991898;28;20508;-82
2022/02/25 03:11:58;;;;;;;2.60;1.08;;;;;;;;;;4956764;28;20037;-81
2022/02/25 03:14:24;;;;;;;4.68;1.33;;;;;;;;;;4945654;28;20113;-81
2022/02/25 03:16:49;;;;;;;5.53;1.75;;;;;;;;;;4988997;28;20069;-82
2022/02/25 03:19:15;;;;;;;3.05;1.27;;;;;;;;;;4974485;28;20118;-81
2022/02/25 03:21:40;;;;;;;5.68;1.73;;;;;;;;;;4990232;28;20030;-82
2022/02/25 03:24:09;;;;;;;3.38;1.00;;;;;;;;;;4989868;28;20038;-82
2022/02/25 03:26:34;;;;;;;3.67;1.27;;;;;;;;;;4989785;28;20027;-82
2022/02/25 03:28:59;;;;;;;2.60;1.35;;;;;;;;;;4990465;28;20058;-81
2022/02/25 03:31:25;;;;;;;2.97;1.05;;;;;;;;;;4947441;28;20047;-81
2022/02/25 03:33:50;;;;;;;2.95;1.40;;;;;;;;;;4958021;28;20704;-82
2022/02/25 03:36:16;;;;;;;4.82;1.17;;;;;;;;;;4957440;28;20035;-82
2022/02/25 03:38:41;;;;;;;4.88;1.08;;;;;;;;;;4957778;28;20108;-82
2022/02/25 03:41:07;;;;;;;3.42;1.50;;;;;;;;;;4941830;28;20031;-82
2022/02/25 03:43:32;;;;;;;4.90;1.00;;;;;;;;;;4961014;28;20038;-82
2022/02/25 03:45:58;;;;;;;3.75;1.20;;;;;;;;;;4957250;28;20410;-82
2022/02/25 03:48:23;;;;;;;5.18;1.63;;;;;;;;;;4957073;28;20456;-82
2022/02/25 03:50:49;;;;;;;3.72;1.20;;;;;;;;;;4989365;28;20117;-82
2022/02/25 03:53:14;;;;;;;4.07;1.50;;;;;;;;;;4989210;28;20121;-82
2022/02/25 03:55:40;;;;;;;3.67;1.08;;;;;;;;;;4976864;28;20427;-82
2022/02/25 03:58:05;;;;;;;3.97;1.00;;;;;;;;;;4959379;28;20496;-81
2022/02/25 04:00:31;;;;;;;4.25;1.00;;;;;;;;;;4989985;28;20035;-82
2022/02/25 04:02:57;;;;;;;3.13;0.82;;;;;;;;;;4993029;28;20061;-81
2022/02/25 04:05:22;;;;;;;4.55;0.88;;;;;;;;;;4976427;28;20030;-81
2022/02/25 04:07:48;;;;;;;4.35;1.10;;;;;;;;;;4976805;28;20057;-82
2022/02/25 04:10:13;;;;;;;2.47;0.82;;;;;;;;;;4972179;28;20402;-82
2022/02/25 04:12:40;;;;;;;3.55;1.20;;;;;;;;;;4975975;28;20493;-81
2022/02/25 04:15:06;;;;;;;4.50;1.10;;;;;;;;;;4960366;28;20042;-82
2022/02/25 04:17:31;;;;;;;2.60;0.80;;;;;;;;;;4976233;28;20419;-81
2022/02/25 04:19:57;;;;;;;3.08;1.10;;;;;;;;;;4992370;28;20137;-82
2022/02/25 04:22:24;;;;;;;2.70;0.90;;;;;;;;;;4982850;28;20031;-82
2022/02/25 04:24:50;;;;;;;2.47;0.75;;;;;;;;;;4956680;28;20034;-81
2022/02/25 04:27:16;;;;;;;2.88;0.98;;;;;;;;;;4973700;28;20053;-82
2022/02/25 04:29:42;;;;;;;2.70;0.85;;;;;;;;;;4957196;28;20041;-81
2022/02/25 04:32:08;;;;;;;4.32;1.10;;;;;;;;;;4973203;28;20039;-81
2022/02/25 04:34:34;;;;;;;3.42;0.90;;;;;;;;;;4972496;28;20089;-81
2022/02/25 04:36:59;;;;;;;3.20;0.95;;;;;;;;;;4955891;28;20041;-82
2022/02/25 04:39:24;;;;;;;3.60;0.98;;;;;;;;;;4983840;28;20472;-81
2022/02/25 04:41:50;;;;;;;4.05;1.15;;;;;;;;;;4956452;28;20038;-81
2022/02/25 04:44:15;;;;;;;2.08;0.85;;;;;;;;;;4972425;28;20047;-82
2022/02/25 04:46:41;;;;;;;3.28;1.10;;;;;;;;;;4950426;28;20059;-82
2022/02/25 04:49:06;;;;;;;4.03;1.13;;;;;;;;;;4956283;28;20513;-81
2022/02/25 04:51:32;;;;;;;3.63;0.90;;;;;;;;;;4972623;28;20074;-82
2022/02/25 04:53:58;;;;;;;3.42;0.93;;;;;;;;;;4978769;28;20076;-81
2022/02/25 04:56:23;;;;;;;2.97;0.88;;;;;;;;;;4975637;28;20046;-81
2022/02/25 04:58:50;;;;;;;4.20;2.03;;;;;;;;;;4943206;28;20073;-82
2022/02/25 05:01:16;;;;;;;3.08;0.80;;;;;;;;;;4960224;28;20041;-81
2022/02/25 05:03:41;;;;;;;3.60;1.08;;;;;;;;;;4974547;28;20046;-81
2022/02/25 05:06:07;;;;;;;3.28;0.77;;;;;;;;;;4984874;28;20038;-81
2022/02/25 05:08:32;;;;;;;2.25;0.88;;;;;;;;;;4944898;28;20513;-82
2022/02/25 05:10:58;;;;;;;3.30;0.75;;;;;;;;;;4940065;28;20576;-81
2022/02/25 05:13:23;;;;;;;2.78;0.93;;;;;;;;;;4939839;28;20046;-82
2022/02/25 05:21:17;;;;;;;5.15;1.15;;;;;;;;;;4960558;28;20052;-81
2022/02/25 05:23:43;;;;;;;4.05;0.80;;;;;;;;;;4975020;28;20500;-81
2022/02/25 05:26:08;;;;;;;3.63;0.82;;;;;;;;;;4991609;28;20044;-81
2022/02/25 05:28:34;;;;;;;5.80;1.80;;;;;;;;;;4959251;28;20053;-81
2022/02/25 05:30:59;;;;;;;2.20;0.68;;;;;;;;;;4991451;28;20050;-81
2022/02/25 05:33:24;;;;;;;2.10;0.70;;;;;;;;;;4984238;28;20429;-82
2022/02/25 05:35:50;;;;;;;3.95;0.93;;;;;;;;;;4988276;28;20042;-81
2022/02/25 05:38:15;;;;;;;4.22;0.80;;;;;;;;;;4971964;28;20041;-81
2022/02/25 05:40:41;;;;;;;2.85;0.80;;;;;;;;;;4970492;28;20042;-81
2022/02/25 05:43:06;;;;;;;2.25;0.68;;;;;;;;;;4971548;28;20489;-81
2022/02/25 05:45:32;;;;;;;3.00;1.27;;;;;;;;;;4958361;28;20046;-81
2022/02/25 05:47:57;;;;;;;3.78;1.38;;;;;;;;;;4958538;28;20504;-81
2022/02/25 05:50:23;;;;;;;2.90;0.82;;;;;;;;;;4970149;28;20128;-81
2022/02/25 05:52:48;;;;;;;4.18;1.23;;;;;;;;;;4975061;28;20077;-82
2022/02/25 05:55:14;;;;;;;2.63;0.85;;;;;;;;;;4955620;28;20038;-81
2022/02/25 05:57:40;;;;;;;4.05;1.05;;;;;;;;;;4940651;28;20027;-82
2022/02/25 06:00:07;;;;;;;3.65;1.15;;;;;;;;;;4991277;28;20050;-81
2022/02/25 06:02:33;;;;;;;3.50;1.15;;;;;;;;;;4948813;28;20038;-80
2022/02/25 06:04:58;;;;;;;4.40;1.48;;;;;;;;;;4955082;28;20035;-81
2022/02/25 06:07:24;;;;;;;4.30;0.85;;;;;;;;;;4952832;28;20035;-82
2022/02/25 06:09:49;;;;;;;4.00;1.00;;;;;;;;;;4953219;28;20102;-81
2022/02/25 06:12:15;;;;;;;4.13;1.27;;;;;;;;;;4954996;28;20517;-80
2022/02/25 06:14:40;;;;;;;7.30;1.15;;;;;;;;;;4974131;28;20046;-79
2022/02/25 06:17:06;;;;;;;4.93;1.10;;;;;;;;;;4974647;28;20081;-81
2022/02/25 06:19:31;;;;;;;3.45;0.95;;;;;;;;;;5007070;28;20046;-81
2022/02/25 06:21:56;;;;;;;3.33;0.88;;;;;;;;;;4974567;28;20039;-80
2022/02/25 06:24:22;;;;;;;3.33;0.88;;;;;;;;;;4986609;28;20641;-80
2022/02/25 06:26:47;;;;;;;9.23;1.90;;;;;;;;;;4971219;28;20062;-80
2022/02/25 06:29:13;;;;;;;2.92;0.85;;;;;;;;;;4970554;28;20516;-81
2022/02/25 06:31:38;;;;;;;5.88;1.02;;;;;;;;;;4974313;28;20034;-81
2022/02/25 06:34:04;;;;;;;7.20;1.00;;;;;;;;;;4987606;28;20116;-81
2022/02/25 06:36:29;;;;;;;13.93;2.38;;;;;;;;;;4989895;28;20034;-82
2022/02/25 06:38:55;;;;;;;3.92;1.52;;;;;;;;;;4997999;28;20049;-81
2022/02/25 06:41:22;;;;;;;12.15;1.73;;;;;;;;;;4971957;28;20125;-80
2022/02/25 06:43:47;;;;;;;12.77;2.97;;;;;;;;;;4970554;28;20160;-82
2022/02/25 06:46:12;;;;;;;8.90;1.95;;;;;;;;;;4933190;28;20042;-81
2022/02/25 06:48:38;;;;;;;9.13;1.77;;;;;;;;;;4990533;28;20039;-81
2022/02/25 06:51:04;;;;;;;12.63;2.78;;;;;;;;;;4963836;28;20035;-82
2022/02/25 06:53:29;;;;;;;13.02;2.30;;;;;;;;;;4979007;28;20046;-83
2022/02/25 06:55:55;;;;;;;10.10;2.35;;;;;;;;;;4961556;28;20053;-81
2022/02/25 06:58:21;;;;;;;9.70;2.13;;;;;;;;;;4967544;28;20126;-81
2022/02/25 07:00:46;;;;;;;14.75;2.10;;;;;;;;;;4971832;28;20465;-81
2022/02/25 07:03:12;;;;;;;7.65;1.98;;;;;;;;;;4953941;28;20120;-82
2022/02/25 07:05:39;;;;;;;7.88;1.80;;;;;;;;;;4957175;28;20037;-81
2022/02/25 07:08:05;;;;;;;9.45;2.00;;;;;;;;;;4957437;28;20043;-82
2022/02/25 07:10:32;;;;;;;25.63;3.95;;;;;;;;;;4947401;28;20034;-82
2022/02/25 07:12:57;;;;;;;8.30;1.65;;;;;;;;;;4971314;28;20042;-82
2022/02/25 07:15:22;;;;;;;5.10;1.50;;;;;;;;;;4972901;28;20531;-81
2022/02/25 07:17:48;;;;;;;9.27;2.30;;;;;;;;;;4967888;28;20043;-81
2022/02/25 07:20:13;;;;;;;8.15;1.48;;;;;;;;;;4989014;28;20086;-83
2022/02/25 07:22:41;;;;;;;13.98;2.33;;;;;;;;;;4990086;28;20101;-82
2022/02/25 07:25:07;;;;;;;8.82;2.17;;;;;;;;;;4989908;28;20098;-84
2022/02/25 07:27:32;;;;;;;10.70;2.08;;;;;;;;;;4958134;28;20041;-83
2022/02/25 07:29:58;;;;;;;9.70;2.05;;;;;;;;;;4957527;28;20413;-85
2022/02/25 07:32:24;;;;;;;13.20;2.67;;;;;;;;;;4965799;28;20034;-83
2022/02/25 07:34:50;;;;;;;7.72;1.88;;;;;;;;;;4977208;28;20026;-83
2022/02/25 07:37:15;;;;;;;9.27;1.75;;;;;;;;;;4988487;28;20038;-83
2022/02/25 07:39:41;;;;;;;6.65;2.03;;;;;;;;;;4962705;28;20452;-82
2022/02/25 07:42:07;;;;;;;7.82;1.67;;;;;;;;;;4973411;28;20114;-82
2022/02/25 07:44:32;;;;;;;4.88;1.42;;;;;;;;;;4973677;28;20039;-83
2022/02/25 07:46:58;;;;;;;5.95;1.58;;;;;;;;;;4970101;28;20047;-82
2022/02/25 07:49:23;;;;;;;8.68;1.75;;;;;;;;;;4957490;28;20089;-82
2022/02/25 07:51:50;;;;;;;8.73;1.67;;;;;;;;;;4958465;28;20505;-82
2022/02/25 07:54:16;;;;;;;5.53;1.10;;;;;;;;;;4945233;28;20030;-81
2022/02/25 07:56:42;;;;;;;4.55;1.83;;;;;;;;;;4944608;28;20038;-82
2022/02/25 07:59:07;;;;;;;7.82;1.65;;;;;;;;;;4960830;28;20112;-82
2022/02/25 08:01:33;;;;;;;4.43;0.95;;;;;;;;;;4960599;28;20045;-81
2022/02/25 08:03:58;;;;;;;7.43;2.00;;;;;;;;;;4958578;28;20041;-82
2022/02/25 08:06:24;;;;;;;5.65;1.50;;;;;;;;;;4974557;28;20086;-82
2022/02/25 08:08:49;;;;;;;4.57;1.48;;;;;;;;;;4959763;28;20055;-81
2022/02/25 08:11:14;;;;;;;7.05;1.27;;;;;;;;;;4959007;28;20124;-81
2022/02/25 08:13:40;;;;;;;5.25;1.60;;;;;;;;;;4959604;28;20038;-82
2022/02/25 08:16:07;;;;;;;7.97;3.92;;;;;;;;;;4969467;28;20425;-82
2022/02/25 08:18:33;;;;;;;4.22;1.63;;;;;;;;;;4942648;28;20045;-80
2022/02/25 08:20:59;;;;;;;6.93;1.63;;;;;;;;;;4958477;28;20031;-81
2022/02/25 08:23:24;;;;;;;5.53;1.52;;;;;;;;;;4975755;28;20034;-81
2022/02/25 08:25:50;;;;;;;6.35;1.65;;;;;;;;;;4972733;28;20047;-81
2022/02/25 08:28:15;;;;;;;5.55;1.83;;;;;;;;;;4971966;28;20401;-81
2022/02/25 08:30:42;;;;;;;6.28;2.20;;;;;;;;;;4971211;28;20515;-81
2022/02/25 08:33:11;;;;;;;5.97;2.55;;;;;;;;;;4975548;28;20026;-81
2022/02/25 08:35:36;;;;;;;5.90;1.50;;;;;;;;;;4974628;28;20813;-81
2022/02/25 08:38:03;;;;;;;4.80;1.23;;;;;;;;;;4975686;28;20038;-81
2022/02/25 08:40:29;;;;;;;5.07;1.60;;;;;;;;;;4975140;28;20046;-81
2022/02/25 08:42:54;;;;;;;4.32;1.60;;;;;;;;;;4990293;28;20096;-81
2022/02/25 08:45:20;;;;;;;6.07;1.70;;;;;;;;;;4944773;28;20420;-80
2022/02/25 08:47:46;;;;;;;5.60;1.92;;;;;;;;;;4959597;28;20100;-85
2022/02/25 08:50:12;;;;;;;7.00;2.00;;;;;;;;;;4959320;28;20038;-86
2022/02/25 08:52:38;;;;;;;5.55;2.42;;;;;;;;;;4960164;28;20468;-85
2022/02/25 08:55:04;;;;;;;5.40;1.70;;;;;;;;;;4970904;28;20031;-84
2022/02/25 08:57:30;;;;;;;6.88;3.40;;;;;;;;;;4956811;28;20023;-84
2022/02/25 08:59:58;;;;;;;14.43;8.00;;;;;;;;;;4959980;28;20125;-85
2022/02/25 09:02:25;;;;;;;21.95;13.32;;;;;;;;;;4956664;28;20038;-85
2022/02/25 09:04:51;;;;;;;31.77;21.75;;;;;;;;;;4972390;28;20045;-86
2022/02/25 09:07:20;;;;;;;38.90;28.52;;;;;;;;;;4972522;28;20039;-86
2022/02/25 09:09:46;;;;;;;48.55;32.33;;;;;;;;;;4957483;28;20090;-86
2022/02/25 09:12:12;;;;;;;38.70;26.77;;;;;;;;;;4975873;28;20169;-86
2022/02/25 09:14:38;;;;;;;37.47;26.30;;;;;;;;;;4943825;28;20132;-87
2022/02/25 09:17:04;;;;;;;32.10;23.70;;;;;;;;;;4940921;28;20069;-87
2022/02/25 09:19:30;;;;;;;32.80;24.08;;;;;;;;;;4925018;28;20042;-87
2022/02/25 09:21:56;;;;;;;36.10;24.15;;;;;;;;;;4924633;28;20089;-86
2022/02/25 09:24:21;;;;;;;33.72;22.65;;;;;;;;;;4939833;28;20070;-86
2022/02/25 09:26:48;;;;;;;31.02;23.25;;;;;;;;;;4924759;28;20060;-86
2022/02/25 09:29:14;;;;;;;27.67;19.60;;;;;;;;;;4956690;28;20035;-86
2022/02/25 09:31:41;;;;;;;31.95;20.65;;;;;;;;;;4924822;28;20035;-86
2022/02/25 09:34:07;;;;;;;30.90;20.90;;;;;;;;;;4924707;28;20129;-87
2022/02/25 09:36:34;;;;;;;28.00;19.05;;;;;;;;;;4940314;28;20046;-86
2022/02/25 09:39:02;;;;;;;28.17;18.83;;;;;;;;;;4956159;28;20035;-87
2022/02/25 09:41:28;;;;;;;28.85;19.20;;;;;;;;;;4972063;28;20038;-87
2022/02/25 09:43:53;;;;;;;29.75;18.42;;;;;;;;;;4929459;28;20031;-87
2022/02/25 09:46:19;;;;;;;27.65;17.90;;;;;;;;;;4966773;28;20096;-86
2022/02/25 09:48:45;;;;;;;25.05;16.67;;;;;;;;;;4959553;28;20041;-86
2022/02/25 09:51:14;;;;;;;23.80;16.33;;;;;;;;;;4959452;28;20038;-87
2022/02/25 09:53:39;;;;;;;23.85;16.35;;;;;;;;;;4959049;28;20045;-87
2022/02/25 09:56:07;;;;;;;25.65;16.33;;;;;;;;;;4959182;28;20117;-87
2022/02/25 09:58:33;;;;;;;22.35;15.85;;;;;;;;;;4961210;28;20027;-87
2022/02/25 10:00:59;;;;;;;20.98;14.48;;;;;;;;;;4975141;28;20035;-86
2022/02/25 10:03:29;;;;;;;20.35;13.38;;;;;;;;;;4990950;28;20037;-86
2022/02/25 10:06:01;;;;;;;20.83;13.38;;;;;;;;;;4974045;28;20255;-86
2022/02/25 10:08:27;;;;;;;;;;;;;;;;;;4989576;28;20033;-85
2022/02/25 10:10:55;;;;;;;21.05;14.07;;;;;;;;;;4946198;28;19918;-86
2022/02/25 10:13:24;;;;;;;19.38;12.75;;;;;;;;;;4938460;28;20125;-84
2022/02/25 10:15:52;;;;;;;22.23;13.07;;;;;;;;;;4959399;28;20035;-86
2022/02/25 10:18:25;;;;;;;21.42;12.85;;;;;;;;;;4974800;28;20031;-85
2022/02/25 10:21:00;;;;;;;19.50;12.20;;;;;;;;;;4982502;28;20027;-86
2022/02/25 10:23:48;;;;;;;21.65;12.00;;;;;;;;;;4966860;28;20513;-86
2022/02/25 10:26:20;;;;;;;17.73;10.52;;;;;;;;;;4955691;28;20047;-86
2022/02/25 10:28:49;;;;;;;16.67;11.10;;;;;;;;;;4939979;28;20050;-87
2022/02/25 10:31:26;;;;;;;16.73;10.90;;;;;;;;;;4939972;28;20122;-86
2022/02/25 10:34:01;;;;;;;19.13;11.52;;;;;;;;;;4971045;28;20073;-86
2022/02/25 10:36:44;;;;;;;15.70;11.60;;;;;;;;;;4962304;28;20034;-86
2022/02/25 10:39:16;;;;;;;14.60;9.95;;;;;;;;;;4972448;28;20137;-83
2022/02/25 10:41:42;;;;;;;15.95;10.52;;;;;;;;;;4986870;28;20116;-83
2022/02/25 10:44:08;;;;;;;17.92;10.90;;;;;;;;;;4951386;28;20042;-83
2022/02/25 10:46:33;;;;;;;16.33;9.98;;;;;;;;;;4995812;28;20096;-83
2022/02/25 10:49:06;;;;;;;18.40;10.70;;;;;;;;;;4962920;28;20042;-83
2022/02/25 10:51:36;;;;;;;17.17;9.88;;;;;;;;;;4974443;28;20046;-84
2022/02/25 10:54:01;;;;;;;14.98;9.70;;;;;;;;;;4984649;28;20099;-82
2022/02/25 10:56:27;;;;;;;14.63;8.10;;;;;;;;;;4990162;28;20460;-83
2022/02/25 10:58:54;;;;;;;17.85;8.98;;;;;;;;;;4964235;28;20118;-83
2022/02/25 11:01:36;;;;;;;17.20;9.73;;;;;;;;;;4946767;28;20037;-83
2022/02/25 11:04:09;;;;;;;17.63;10.52;;;;;;;;;;4961659;28;20031;-83
2022/02/25 11:06:35;;;;;;;17.33;10.57;;;;;;;;;;4976500;28;20035;-83
2022/02/25 11:09:00;;;;;;;19.70;11.18;;;;;;;;;;4978019;28;20125;-83
2022/02/25 11:11:26;;;;;;;15.65;9.60;;;;;;;;;;4961307;28;20039;-83
2022/02/25 11:13:51;;;;;;;18.05;10.43;;;;;;;;;;4959335;28;20181;-82
2022/02/25 11:16:20;;;;;;;16.52;9.13;;;;;;;;;;4958345;28;20467;-83
2022/02/25 11:18:46;;;;;;;16.92;10.43;;;;;;;;;;4957954;28;20409;-83
2022/02/25 11:21:12;;;;;;;14.10;8.93;;;;;;;;;;4974014;28;20039;-83
2022/02/25 11:23:43;;;;;;;15.95;9.20;;;;;;;;;;4974784;28;20043;-83
2022/02/25 11:26:08;;;;;;;15.55;8.55;;;;;;;;;;4958886;28;20409;-82
2022/02/25 11:28:34;;;;;;;14.98;7.88;;;;;;;;;;4958270;28;20121;-83
2022/02/25 11:31:06;;;;;;;14.88;8.13;;;;;;;;;;4974045;28;20405;-83
2022/02/25 11:33:32;;;;;;;;;;;;;;;;;;4958092;28;20039;-84
2022/02/25 11:36:04;;;;;;;14.50;8.77;;;;;;;;;;4957599;28;20377;-83
2022/02/25 11:38:30;;;;;;;14.30;7.43;;;;;;;;;;4974088;28;20540;-83
2022/02/25 11:41:09;;;;;;;10.98;7.00;;;;;;;;;;4973941;28;20043;-83
2022/02/25 11:43:45;;;;;;;14.07;7.30;;;;;;;;;;4957626;28;20406;-83
2022/02/25 11:46:29;;;;;;;12.75;8.18;;;;;;;;;;4979440;28;20043;-83
2022/02/25 11:48:56;;;;;;;13.70;7.22;;;;;;;;;;4973284;28;20081;-84
2022/02/25 11:51:26;;;;;;;11.45;7.10;;;;;;;;;;4973721;28;20059;-83
2022/02/25 11:56:57;;;;;;;9.80;5.95;;;;;;;;;;4975443;28;20367;-83
2022/02/25 11:59:31;;;;;;;12.32;6.40;;;;;;;;;;4981382;28;20046;-83
2022/02/25 12:02:16;;;;;;;11.68;5.88;;;;;;;;;;4973753;28;20038;-83
2022/02/25 12:04:50;;;;;;;10.90;5.20;;;;;;;;;;4941404;28;20065;-83
2022/02/25 12:07:16;;;;;;;11.13;5.68;;;;;;;;;;4941959;28;20535;-83
2022/02/25 12:10:02;;;;;;;10.20;5.05;;;;;;;;;;4956672;28;20120;-83
2022/02/25 12:12:27;;;;;;;10.02;4.90;;;;;;;;;;4961341;28;20447;-83
2022/02/25 12:15:22;;;;;;;9.65;4.88;;;;;;;;;;4993513;28;20571;-83
2022/02/25 12:17:56;;;;;;;9.35;4.95;;;;;;;;;;4977632;28;20046;-83
2022/02/25 12:20:23;;;;;;;11.43;5.13;;;;;;;;;;4976451;28;20073;-83
2022/02/25 12:22:57;;;;;;;8.48;4.93;;;;;;;;;;4960371;28;20125;-83
2022/02/25 12:25:38;;;;;;;10.90;5.13;;;;;;;;;;4993954;28;20409;-83
2022/02/25 12:28:07;;;;;;;8.35;4.22;;;;;;;;;;4976393;28;20138;-83
2022/02/25 12:30:39;;;;;;;8.70;4.78;;;;;;;;;;4992733;28;20121;-83
2022/02/25 12:33:36;;;;;;;10.25;5.15;;;;;;;;;;4992204;28;20039;-83
2022/02/25 12:36:22;;;;;;;8.57;4.80;;;;;;;;;;4992197;28;20497;-83
2022/02/25 12:38:50;;;;;;;8.60;4.00;;;;;;;;;;4961482;28;20026;-83
2022/02/25 12:41:17;;;;;;;9.70;3.95;;;;;;;;;;4944609;28;20034;-82
2022/02/25 12:43:50;;;;;;;8.68;3.85;;;;;;;;;;4960050;28;20042;-83
2022/02/25 12:46:16;;;;;;;8.50;3.95;;;;;;;;;;4972287;28;20098;-83
2022/02/25 12:48:42;;;;;;;7.40;3.60;;;;;;;;;;4988395;28;20090;-83
2022/02/25 12:51:08;;;;;;;8.00;4.10;;;;;;;;;;4989093;28;20110;-83
2022/02/25 12:53:52;;;;;;;7.85;3.50;;;;;;;;;;4972391;28;20049;-83
2022/02/25 12:56:29;;;;;;;6.53;3.55;;;;;;;;;;4988679;28;20047;-84
2022/02/25 12:59:02;;;;;;;7.18;3.13;;;;;;;;;;4970161;28;20113;-83
2022/02/25 13:01:29;;;;;;;8.95;3.45;;;;;;;;;;4975989;28;20088;-83
2022/02/25 13:04:12;;;;;;;7.90;3.65;;;;;;;;;;4958486;28;20069;-82
2022/02/25 13:06:38;;;;;;;9.07;3.30;;;;;;;;;;4956606;28;20030;-83
2022/02/25 13:09:06;;;;;;;5.68;2.83;;;;;;;;;;4956579;28;20114;-82
2022/02/25 13:11:32;;;;;;;5.97;2.30;;;;;;;;;;4956404;28;20478;-82
2022/02/25 13:14:16;;;;;;;7.13;2.65;;;;;;;;;;4956032;28;20064;-82
2022/02/25 13:17:00;;;;;;;7.50;3.40;;;;;;;;;;4975362;28;20049;-82
2022/02/25 13:19:28;;;;;;;5.65;2.13;;;;;;;;;;4975247;28;20472;-83
2022/02/25 13:22:10;;;;;;;6.63;2.80;;;;;;;;;;4991662;28;20039;-82
2022/02/25 13:24:37;;;;;;;6.32;2.65;;;;;;;;;;4991495;28;20041;-82
2022/02/25 13:27:07;;;;;;;6.25;2.63;;;;;;;;;;4975558;28;20038;-82
2022/02/25 13:29:32;;;;;;;6.72;2.72;;;;;;;;;;4975194;28;20050;-83
2022/02/25 13:32:01;;;;;;;4.43;1.98;;;;;;;;;;4991306;28;20144;-82
2022/02/25 13:34:26;;;;;;;5.72;2.97;;;;;;;;;;4990805;28;20038;-82
2022/02/25 13:36:53;;;;;;;3.58;1.85;;;;;;;;;;4974962;28;20121;-82
2022/02/25 13:39:29;;;;;;;5.05;2.13;;;;;;;;;;4971846;28;20034;-82
2022/02/25 13:41:55;;;;;;;4.45;1.63;;;;;;;;;;4939833;28;20045;-82
2022/02/25 13:44:21;;;;;;;5.88;1.95;;;;;;;;;;4948721;28;20026;-83
2022/02/25 13:46:48;;;;;;;6.00;2.17;;;;;;;;;;4971828;28;20041;-83
2022/02/25 13:52:22;;;;;;;5.38;1.90;;;;;;;;;;4985681;28;20454;-82
2022/02/25 13:54:50;;;;;;;4.22;1.77;;;;;;;;;;4957583;28;20134;-82
2022/02/25 13:57:29;;;;;;;5.60;2.13;;;;;;;;;;4955771;28;20045;-82
2022/02/25 13:59:57;;;;;;;4.53;2.00;;;;;;;;;;4966549;28;20066;-82
2022/02/25 14:02:30;;;;;;;2.95;1.10;;;;;;;;;;4987672;28;20043;-82
2022/02/25 14:05:09;;;;;;;3.80;1.25;;;;;;;;;;4971499;28;20104;-82
2022/02/25 14:07:42;;;;;;;3.85;1.58;;;;;;;;;;4973047;28;20494;-82
2022/02/25 14:10:24;;;;;;;4.88;1.30;;;;;;;;;;4973861;28;20042;-83
2022/02/25 14:12:50;;;;;;;5.30;1.52;;;;;;;;;;4975372;28;20034;-83
2022/02/25 14:15:17;;;;;;;2.85;1.10;;;;;;;;;;4991689;28;20398;-82
2022/02/25 14:17:43;;;;;;;5.22;1.77;;;;;;;;;;4975445;28;20126;-83
2022/02/25 14:20:25;;;;;;;4.53;1.33;;;;;;;;;;4975153;28;20118;-83
2022/02/25 14:22:54;;;;;;;4.65;1.45;;;;;;;;;;4975446;28;20058;-83
2022/02/25 14:25:19;;;;;;;3.35;1.20;;;;;;;;;;4975386;28;20045;-83
2022/02/25 14:28:07;;;;;;;3.13;1.17;;;;;;;;;;4976190;28;20039;-83
2022/02/25 14:30:47;;;;;;;4.32;1.35;;;;;;;;;;4975406;28;20105;-83
2022/02/25 14:33:19;;;;;;;4.60;1.20;;;;;;;;;;4992002;28;20066;-83
2022/02/25 14:35:46;;;;;;;3.97;0.97;;;;;;;;;;4994984;28;20042;-83
2022/02/25 14:38:12;;;;;;;4.13;1.20;;;;;;;;;;4946415;28;20571;-83
2022/02/25 14:40:38;;;;;;;3.70;1.30;;;;;;;;;;4978383;28;20042;-83
2022/02/25 14:43:03;;;;;;;4.22;1.63;;;;;;;;;;4977893;28;20034;-83
2022/02/25 14:45:29;;;;;;;5.35;1.40;;;;;;;;;;4978089;28;20153;-83
2022/02/25 14:47:55;;;;;;;4.47;1.40;;;;;;;;;;4946080;28;20037;-84
2022/02/25 14:50:21;;;;;;;3.53;0.93;;;;;;;;;;4978111;28;20041;-83
2022/02/25 14:52:46;;;;;;;3.60;1.17;;;;;;;;;;4962042;28;20026;-82
2022/02/25 14:55:12;;;;;;;3.35;1.17;;;;;;;;;;4978060;28;20049;-82